createdAt,value
2017-03-27T00:00:11.713Z,926.89
2017-03-27T00:00:31.068Z,926.89
2017-03-27T00:00:50.454Z,926.89
2017-03-27T00:01:09.789Z,926.92
2017-03-27T00:01:29.110Z,926.93
2017-03-27T00:01:48.441Z,926.91
2017-03-27T00:02:06.712Z,926.91
2017-03-27T00:02:25.499Z,926.95
2017-03-27T00:02:44.829Z,926.91
2017-03-27T00:03:04.197Z,926.95
2017-03-27T00:03:23.505Z,926.95
2017-03-27T00:03:42.279Z,926.96
2017-03-27T00:04:01.621Z,926.96
2017-03-27T00:04:20.935Z,926.97
2017-03-27T00:04:39.787Z,926.97
2017-03-27T00:04:58.686Z,926.96
2017-03-27T00:05:18.700Z,926.99
2017-03-27T00:05:37.556Z,926.98
2017-03-27T00:05:56.951Z,926.99
2017-03-27T00:06:15.825Z,927
2017-03-27T00:06:34.148Z,927.01
2017-03-27T00:06:53.526Z,926.98
2017-03-27T00:07:12.840Z,927.01
2017-03-27T00:07:32.160Z,926.97
2017-03-27T00:07:50.977Z,927.01
2017-03-27T00:08:09.799Z,927
2017-03-27T00:08:29.167Z,927.01
2017-03-27T00:08:48.018Z,927
2017-03-27T00:09:07.344Z,927.05
2017-03-27T00:09:26.643Z,927.02
2017-03-27T00:09:45.970Z,927.03
2017-03-27T00:10:04.785Z,927.06
2017-03-27T00:10:24.101Z,927.03
2017-03-27T00:10:43.405Z,927.06
2017-03-27T00:11:02.702Z,927.08
2017-03-27T00:11:22.039Z,927.08
2017-03-27T00:11:40.809Z,927.12
2017-03-27T00:12:00.143Z,927.06
2017-03-27T00:12:19.439Z,927.06
2017-03-27T00:12:38.759Z,927.06
2017-03-27T00:12:58.087Z,927.03
2017-03-27T00:13:16.911Z,927.06
2017-03-27T00:13:36.227Z,927.03
2017-03-27T00:13:55.544Z,927.06
2017-03-27T00:14:14.886Z,927.02
2017-03-27T00:14:33.716Z,927
2017-03-27T00:14:52.509Z,927.03
2017-03-27T00:15:11.455Z,926.98
2017-03-27T00:15:30.776Z,926.98
2017-03-27T00:15:50.159Z,927.02
2017-03-27T00:16:09.458Z,926.99
2017-03-27T00:16:28.778Z,926.99
2017-03-27T00:16:48.100Z,926.99
2017-03-27T00:17:07.463Z,927.02
2017-03-27T00:17:26.781Z,926.99
2017-03-27T00:17:45.574Z,926.98
2017-03-27T00:18:03.862Z,927.03
2017-03-27T00:18:22.656Z,927
2017-03-27T00:18:42.030Z,927.02
2017-03-27T00:19:01.343Z,927.03
2017-03-27T00:19:20.679Z,927.02
2017-03-27T00:19:40.044Z,927.01
2017-03-27T00:19:59.437Z,927.02
2017-03-27T00:20:18.866Z,927.04
2017-03-27T00:20:37.212Z,927.04
2017-03-27T00:20:56.541Z,926.98
2017-03-27T00:21:15.885Z,926.99
2017-03-27T00:21:35.182Z,927.01
2017-03-27T00:21:54.001Z,927
2017-03-27T00:22:12.803Z,927.02
2017-03-27T00:22:31.591Z,927
2017-03-27T00:22:50.913Z,926.99
2017-03-27T00:23:09.751Z,927.04
2017-03-27T00:23:29.120Z,927.07
2017-03-27T00:23:48.493Z,927.03
2017-03-27T00:24:06.809Z,927.02
2017-03-27T00:24:25.620Z,926.98
2017-03-27T00:24:44.924Z,927.02
2017-03-27T00:25:04.239Z,926.97
2017-03-27T00:25:23.578Z,926.98
2017-03-27T00:25:42.894Z,926.96
2017-03-27T00:26:01.718Z,926.95
2017-03-27T00:26:20.513Z,926.94
2017-03-27T00:26:39.841Z,926.95
2017-03-27T00:26:58.651Z,926.94
2017-03-27T00:27:17.943Z,926.93
2017-03-27T00:27:37.254Z,926.95
2017-03-27T00:27:56.591Z,926.97
2017-03-27T00:28:15.918Z,926.95
2017-03-27T00:28:35.243Z,926.96
2017-03-27T00:28:54.568Z,926.92
2017-03-27T00:29:13.957Z,926.92
2017-03-27T00:29:33.388Z,926.94
2017-03-27T00:29:51.245Z,926.91
2017-03-27T00:30:09.937Z,926.93
2017-03-27T00:30:29.352Z,926.91
2017-03-27T00:30:48.723Z,926.89
2017-03-27T00:31:08.073Z,926.89
2017-03-27T00:31:27.392Z,926.87
2017-03-27T00:31:46.209Z,926.91
2017-03-27T00:32:05.014Z,926.9
2017-03-27T00:32:23.817Z,926.91
2017-03-27T00:32:42.615Z,926.9
2017-03-27T00:33:01.997Z,926.9
2017-03-27T00:33:21.422Z,926.9
2017-03-27T00:33:40.821Z,926.93
2017-03-27T00:33:59.666Z,926.9
2017-03-27T00:34:19.026Z,926.9
2017-03-27T00:34:38.362Z,926.88
2017-03-27T00:34:57.672Z,926.91
2017-03-27T00:35:16.492Z,926.87
2017-03-27T00:35:36.325Z,926.87
2017-03-27T00:35:57.092Z,926.88
2017-03-27T00:36:15.957Z,926.91
2017-03-27T00:36:35.395Z,926.89
2017-03-27T00:36:54.785Z,926.92
2017-03-27T00:37:14.122Z,926.9
2017-03-27T00:37:33.468Z,926.86
2017-03-27T00:37:52.418Z,926.85
2017-03-27T00:38:11.781Z,926.86
2017-03-27T00:38:31.171Z,926.87
2017-03-27T00:38:50.126Z,926.82
2017-03-27T00:39:09.475Z,926.87
2017-03-27T00:39:28.846Z,926.85
2017-03-27T00:39:48.177Z,926.88
2017-03-27T00:40:07.542Z,926.81
2017-03-27T00:40:26.980Z,926.81
2017-03-27T00:40:45.337Z,926.8
2017-03-27T00:41:04.702Z,926.76
2017-03-27T00:41:24.028Z,926.84
2017-03-27T00:41:42.833Z,926.79
2017-03-27T00:42:02.191Z,926.8
2017-03-27T00:42:21.520Z,926.82
2017-03-27T00:42:40.837Z,926.81
2017-03-27T00:43:00.201Z,926.82
2017-03-27T00:43:19.522Z,926.78
2017-03-27T00:43:38.886Z,926.83
2017-03-27T00:43:58.231Z,926.85
2017-03-27T00:44:17.030Z,926.82
2017-03-27T00:44:35.840Z,926.85
2017-03-27T00:44:55.142Z,926.83
2017-03-27T00:45:14.493Z,926.79
2017-03-27T00:45:33.800Z,926.8
2017-03-27T00:45:52.629Z,926.81
2017-03-27T00:46:11.993Z,926.81
2017-03-27T00:46:31.291Z,926.8
2017-03-27T00:46:50.128Z,926.75
2017-03-27T00:47:09.488Z,926.76
2017-03-27T00:47:28.803Z,926.75
2017-03-27T00:47:48.218Z,926.72
2017-03-27T00:48:07.036Z,926.73
2017-03-27T00:48:25.828Z,926.73
2017-03-27T00:48:45.123Z,926.7
2017-03-27T00:49:03.947Z,926.7
2017-03-27T00:49:22.762Z,926.72
2017-03-27T00:49:42.086Z,926.74
2017-03-27T00:50:01.384Z,926.72
2017-03-27T00:50:20.683Z,926.72
2017-03-27T00:50:40.002Z,926.72
2017-03-27T00:50:59.328Z,926.73
2017-03-27T00:51:18.668Z,926.74
2017-03-27T00:51:37.994Z,926.74
2017-03-27T00:51:56.797Z,926.73
2017-03-27T00:52:16.115Z,926.7
2017-03-27T00:52:35.428Z,926.73
2017-03-27T00:52:54.762Z,926.75
2017-03-27T00:53:14.116Z,926.73
2017-03-27T00:53:33.457Z,926.77
2017-03-27T00:53:52.768Z,926.76
2017-03-27T00:54:11.561Z,926.73
2017-03-27T00:54:30.895Z,926.76
2017-03-27T00:54:50.230Z,926.79
2017-03-27T00:55:09.662Z,926.76
2017-03-27T00:55:28.474Z,926.75
2017-03-27T00:55:47.802Z,926.8
2017-03-27T00:56:07.160Z,926.79
2017-03-27T00:56:26.510Z,926.74
2017-03-27T00:56:45.924Z,926.74
2017-03-27T00:57:04.799Z,926.75
2017-03-27T00:57:24.113Z,926.75
2017-03-27T00:57:42.929Z,926.71
2017-03-27T00:58:02.294Z,926.71
2017-03-27T00:58:21.614Z,926.76
2017-03-27T00:58:40.410Z,926.7
2017-03-27T00:58:59.755Z,926.7
2017-03-27T00:59:19.083Z,926.69
2017-03-27T00:59:37.374Z,926.7
2017-03-27T00:59:56.704Z,926.7
2017-03-27T01:00:15.489Z,926.71
2017-03-27T01:00:34.343Z,926.68
2017-03-27T01:00:53.644Z,926.69
2017-03-27T01:01:12.978Z,926.7
2017-03-27T01:01:31.778Z,926.71
2017-03-27T01:01:51.059Z,926.73
2017-03-27T01:02:09.857Z,926.7
2017-03-27T01:02:28.924Z,926.71
2017-03-27T01:02:48.606Z,926.73
2017-03-27T01:03:07.938Z,926.78
2017-03-27T01:03:27.264Z,926.77
2017-03-27T01:03:46.600Z,926.77
2017-03-27T01:04:05.941Z,926.78
2017-03-27T01:04:25.252Z,926.8
2017-03-27T01:04:44.610Z,926.78
2017-03-27T01:05:03.396Z,926.79
2017-03-27T01:05:22.292Z,926.81
2017-03-27T01:05:41.083Z,926.79
2017-03-27T01:06:00.376Z,926.78
2017-03-27T01:06:19.683Z,926.81
2017-03-27T01:06:38.502Z,926.81
2017-03-27T01:06:57.804Z,926.82
2017-03-27T01:07:16.597Z,926.83
2017-03-27T01:07:35.415Z,926.83
2017-03-27T01:07:54.721Z,926.82
2017-03-27T01:08:14.030Z,926.8
2017-03-27T01:08:33.378Z,926.84
2017-03-27T01:08:52.670Z,926.82
2017-03-27T01:09:12.022Z,926.85
2017-03-27T01:09:31.427Z,926.85
2017-03-27T01:09:50.762Z,926.8
2017-03-27T01:10:09.881Z,926.86
2017-03-27T01:10:28.675Z,926.88
2017-03-27T01:10:47.971Z,926.9
2017-03-27T01:11:07.340Z,926.88
2017-03-27T01:11:26.726Z,926.92
2017-03-27T01:11:46.029Z,926.95
2017-03-27T01:12:05.334Z,926.95
2017-03-27T01:12:25.179Z,926.97
2017-03-27T01:12:44.593Z,926.99
2017-03-27T01:13:03.988Z,927.01
2017-03-27T01:13:23.305Z,927.03
2017-03-27T01:13:42.728Z,927.05
2017-03-27T01:14:02.125Z,927.07
2017-03-27T01:14:21.540Z,927.04
2017-03-27T01:14:40.857Z,927.01
2017-03-27T01:15:00.189Z,927.06
2017-03-27T01:15:33.502Z,927.06
2017-03-27T01:15:52.843Z,927.07
2017-03-27T01:16:11.152Z,927.06
2017-03-27T01:16:30.480Z,927.05
2017-03-27T01:16:48.738Z,927.08
2017-03-27T01:17:08.136Z,927.07
2017-03-27T01:17:27.518Z,927.06
2017-03-27T01:17:46.822Z,927.05
2017-03-27T01:18:05.590Z,927.06
2017-03-27T01:18:24.926Z,927.05
2017-03-27T01:18:45.162Z,927.05
2017-03-27T01:19:04.496Z,927.03
2017-03-27T01:19:23.802Z,927.01
2017-03-27T01:19:41.577Z,927.01
2017-03-27T01:20:00.881Z,927.02
2017-03-27T01:20:20.443Z,927.02
2017-03-27T01:20:39.370Z,927.01
2017-03-27T01:20:57.675Z,927.02
2017-03-27T01:21:17.004Z,927.02
2017-03-27T01:21:36.351Z,927.04
2017-03-27T01:21:55.667Z,927.04
2017-03-27T01:22:14.466Z,927.05
2017-03-27T01:22:33.778Z,927
2017-03-27T01:22:52.596Z,927.05
2017-03-27T01:23:11.431Z,927.06
2017-03-27T01:23:30.764Z,927.06
2017-03-27T01:23:50.066Z,927.05
2017-03-27T01:24:09.408Z,927.05
2017-03-27T01:24:28.711Z,927.04
2017-03-27T01:24:48.029Z,927.05
2017-03-27T01:25:07.352Z,927.04
2017-03-27T01:25:26.799Z,927.07
2017-03-27T01:25:45.609Z,927.04
2017-03-27T01:26:04.938Z,927.05
2017-03-27T01:26:23.744Z,927.05
2017-03-27T01:26:43.078Z,927.01
2017-03-27T01:27:02.426Z,927.08
2017-03-27T01:27:21.889Z,927.11
2017-03-27T01:27:40.710Z,927.06
2017-03-27T01:28:00.160Z,927.06
2017-03-27T01:28:19.544Z,927.07
2017-03-27T01:28:38.406Z,927.12
2017-03-27T01:28:57.713Z,927.14
2017-03-27T01:29:17.024Z,927.14
2017-03-27T01:29:36.345Z,927.14
2017-03-27T01:29:54.621Z,927.14
2017-03-27T01:30:13.146Z,927.17
2017-03-27T01:30:32.475Z,927.15
2017-03-27T01:30:51.357Z,927.17
2017-03-27T01:31:10.379Z,927.21
2017-03-27T01:31:29.790Z,927.15
2017-03-27T01:31:49.140Z,927.2
2017-03-27T01:32:08.488Z,927.22
2017-03-27T01:32:27.851Z,927.19
2017-03-27T01:32:47.280Z,927.23
2017-03-27T01:33:06.604Z,927.23
2017-03-27T01:33:25.475Z,927.25
2017-03-27T01:33:44.889Z,927.26
2017-03-27T01:34:04.294Z,927.25
2017-03-27T01:34:23.631Z,927.23
2017-03-27T01:34:42.940Z,927.22
2017-03-27T01:35:02.289Z,927.25
2017-03-27T01:35:21.597Z,927.21
2017-03-27T01:35:40.999Z,927.21
2017-03-27T01:36:00.366Z,927.25
2017-03-27T01:36:19.216Z,927.24
2017-03-27T01:36:38.557Z,927.21
2017-03-27T01:36:57.409Z,927.17
2017-03-27T01:37:16.206Z,927.21
2017-03-27T01:37:35.535Z,927.15
2017-03-27T01:37:54.830Z,927.18
2017-03-27T01:38:14.124Z,927.16
2017-03-27T01:38:33.503Z,927.17
2017-03-27T01:38:52.870Z,927.16
2017-03-27T01:39:12.295Z,927.14
2017-03-27T01:39:32.114Z,927.16
2017-03-27T01:39:51.954Z,927.14
2017-03-27T01:40:10.740Z,927.14
2017-03-27T01:40:31.520Z,927.07
2017-03-27T01:40:50.850Z,927.12
2017-03-27T01:41:10.221Z,927.11
2017-03-27T01:41:29.544Z,927.11
2017-03-27T01:41:48.835Z,927.11
2017-03-27T01:42:07.702Z,927.09
2017-03-27T01:42:27.142Z,927.1
2017-03-27T01:42:45.928Z,927.09
2017-03-27T01:43:05.301Z,927.13
2017-03-27T01:43:24.687Z,927.1
2017-03-27T01:43:44.098Z,927.06
2017-03-27T01:44:03.887Z,927.07
2017-03-27T01:44:23.250Z,927.08
2017-03-27T01:44:42.675Z,927.11
2017-03-27T01:45:01.499Z,927.09
2017-03-27T01:45:21.529Z,927.08
2017-03-27T01:45:40.870Z,927.06
2017-03-27T01:46:00.227Z,927.08
2017-03-27T01:46:19.543Z,927.07
2017-03-27T01:46:38.852Z,927.08
2017-03-27T01:46:58.146Z,927.09
2017-03-27T01:47:17.489Z,927.07
2017-03-27T01:47:36.831Z,927.12
2017-03-27T01:47:56.165Z,927.11
2017-03-27T01:48:15.617Z,927.14
2017-03-27T01:48:35.040Z,927.15
2017-03-27T01:48:54.002Z,927.14
2017-03-27T01:49:13.325Z,927.15
2017-03-27T01:49:32.179Z,927.16
2017-03-27T01:49:51.675Z,927.15
2017-03-27T01:50:10.977Z,927.14
2017-03-27T01:50:30.489Z,927.18
2017-03-27T01:50:49.876Z,927.17
2017-03-27T01:51:09.167Z,927.11
2017-03-27T01:51:28.528Z,927.14
2017-03-27T01:51:47.851Z,927.15
2017-03-27T01:52:06.685Z,927.16
2017-03-27T01:52:40.099Z,927.12
2017-03-27T01:52:59.424Z,927.13
2017-03-27T01:53:18.768Z,927.13
2017-03-27T01:53:38.118Z,927.14
2017-03-27T01:53:57.457Z,927.14
2017-03-27T01:54:16.297Z,927.14
2017-03-27T01:54:35.123Z,927.16
2017-03-27T01:54:54.453Z,927.16
2017-03-27T01:55:13.358Z,927.13
2017-03-27T01:55:32.672Z,927.13
2017-03-27T01:55:52.053Z,927.16
2017-03-27T01:56:11.406Z,927.14
2017-03-27T01:56:30.788Z,927.16
2017-03-27T01:56:50.136Z,927.17
2017-03-27T01:57:09.449Z,927.2
2017-03-27T01:57:28.748Z,927.16
2017-03-27T01:57:47.023Z,927.18
2017-03-27T01:58:06.387Z,927.2
2017-03-27T01:58:25.189Z,927.17
2017-03-27T01:58:44.516Z,927.19
2017-03-27T01:59:03.846Z,927.14
2017-03-27T01:59:23.175Z,927.12
2017-03-27T01:59:42.501Z,927.13
2017-03-27T02:00:01.849Z,927.14
2017-03-27T02:00:21.200Z,927.11
2017-03-27T02:00:40.523Z,927.11
2017-03-27T02:00:59.833Z,927.1
2017-03-27T02:01:19.172Z,927.1
2017-03-27T02:01:37.492Z,927.09
2017-03-27T02:01:56.825Z,927.07
2017-03-27T02:02:16.146Z,927.06
2017-03-27T02:02:35.001Z,927
2017-03-27T02:02:54.322Z,927.02
2017-03-27T02:03:13.668Z,927.02
2017-03-27T02:03:31.957Z,927
2017-03-27T02:03:51.278Z,927.03
2017-03-27T02:04:10.600Z,927.02
2017-03-27T02:04:28.892Z,927
2017-03-27T02:04:47.700Z,927.02
2017-03-27T02:05:07.024Z,927.02
2017-03-27T02:05:25.819Z,927.02
2017-03-27T02:05:44.619Z,927.01
2017-03-27T02:06:03.949Z,927
2017-03-27T02:06:23.281Z,927
2017-03-27T02:06:42.613Z,926.99
2017-03-27T02:07:01.954Z,927
2017-03-27T02:07:20.747Z,926.99
2017-03-27T02:07:40.135Z,926.95
2017-03-27T02:07:59.481Z,926.96
2017-03-27T02:08:18.825Z,926.95
2017-03-27T02:08:37.609Z,926.96
2017-03-27T02:08:56.929Z,926.92
2017-03-27T02:09:16.260Z,926.9
2017-03-27T02:09:35.599Z,926.91
2017-03-27T02:09:54.951Z,926.9
2017-03-27T02:10:14.372Z,926.87
2017-03-27T02:10:33.714Z,926.87
2017-03-27T02:10:53.022Z,926.89
2017-03-27T02:11:12.371Z,926.88
2017-03-27T02:11:31.196Z,926.88
2017-03-27T02:11:50.517Z,926.86
2017-03-27T02:12:09.845Z,926.84
2017-03-27T02:12:28.657Z,926.86
2017-03-27T02:12:48.065Z,926.85
2017-03-27T02:13:07.390Z,926.86
2017-03-27T02:13:26.697Z,926.85
2017-03-27T02:13:46.011Z,926.85
2017-03-27T02:14:05.856Z,926.83
2017-03-27T02:14:25.220Z,926.86
2017-03-27T02:14:44.633Z,926.86
2017-03-27T02:15:04.034Z,926.87
2017-03-27T02:15:23.382Z,926.81
2017-03-27T02:15:42.720Z,926.82
2017-03-27T02:16:02.031Z,926.82
2017-03-27T02:16:21.439Z,926.8
2017-03-27T02:16:40.816Z,926.82
2017-03-27T02:17:00.186Z,926.81
2017-03-27T02:17:19.552Z,926.82
2017-03-27T02:17:38.890Z,926.79
2017-03-27T02:17:58.283Z,926.79
2017-03-27T02:18:17.654Z,926.77
2017-03-27T02:18:36.993Z,926.77
2017-03-27T02:18:56.330Z,926.79
2017-03-27T02:19:15.693Z,926.8
2017-03-27T02:19:35.475Z,926.81
2017-03-27T02:19:54.812Z,926.78
2017-03-27T02:20:14.354Z,926.85
2017-03-27T02:20:33.163Z,926.83
2017-03-27T02:20:52.493Z,926.82
2017-03-27T02:21:11.825Z,926.81
2017-03-27T02:21:31.142Z,926.83
2017-03-27T02:21:50.448Z,926.85
2017-03-27T02:22:09.775Z,926.88
2017-03-27T02:22:28.557Z,926.87
2017-03-27T02:22:47.873Z,926.89
2017-03-27T02:23:07.190Z,926.9
2017-03-27T02:23:26.518Z,926.87
2017-03-27T02:23:45.834Z,926.9
2017-03-27T02:24:05.145Z,926.89
2017-03-27T02:24:24.502Z,926.92
2017-03-27T02:24:43.826Z,926.89
2017-03-27T02:25:03.181Z,926.9
2017-03-27T02:25:22.507Z,926.92
2017-03-27T02:25:41.323Z,926.89
2017-03-27T02:26:00.661Z,926.84
2017-03-27T02:26:20.003Z,926.87
2017-03-27T02:26:38.803Z,926.88
2017-03-27T02:26:58.148Z,926.87
2017-03-27T02:27:17.472Z,926.84
2017-03-27T02:27:36.807Z,926.87
2017-03-27T02:27:56.360Z,926.83
2017-03-27T02:28:15.701Z,926.85
2017-03-27T02:28:35.016Z,926.87
2017-03-27T02:28:54.329Z,926.83
2017-03-27T02:29:13.637Z,926.81
2017-03-27T02:29:32.973Z,926.82
2017-03-27T02:29:52.282Z,926.8
2017-03-27T02:30:11.745Z,926.78
2017-03-27T02:30:31.103Z,926.78
2017-03-27T02:30:50.404Z,926.78
2017-03-27T02:31:09.740Z,926.83
2017-03-27T02:31:29.068Z,926.79
2017-03-27T02:32:21.162Z,926.8
2017-03-27T02:32:40.497Z,926.82
2017-03-27T02:32:59.783Z,926.76
2017-03-27T02:33:18.590Z,926.76
2017-03-27T02:33:37.392Z,926.81
2017-03-27T02:33:56.709Z,926.76
2017-03-27T02:34:15.522Z,926.77
2017-03-27T02:34:34.820Z,926.75
2017-03-27T02:34:54.141Z,926.73
2017-03-27T02:35:13.462Z,926.72
2017-03-27T02:35:32.286Z,926.76
2017-03-27T02:35:51.587Z,926.72
2017-03-27T02:36:10.886Z,926.72
2017-03-27T02:36:30.212Z,926.71
2017-03-27T02:36:49.502Z,926.69
2017-03-27T02:37:08.878Z,926.64
2017-03-27T02:37:28.200Z,926.69
2017-03-27T02:37:47.606Z,926.65
2017-03-27T02:38:07.551Z,926.65
2017-03-27T02:38:26.381Z,926.69
2017-03-27T02:38:45.160Z,926.67
2017-03-27T02:39:04.532Z,926.68
2017-03-27T02:39:23.883Z,926.69
2017-03-27T02:39:43.232Z,926.74
2017-03-27T02:40:02.552Z,926.67
2017-03-27T02:40:21.873Z,926.74
2017-03-27T02:40:41.170Z,926.77
2017-03-27T02:41:00.491Z,926.78
2017-03-27T02:41:19.330Z,926.78
2017-03-27T02:41:38.670Z,926.84
2017-03-27T02:41:57.998Z,926.78
2017-03-27T02:42:16.935Z,926.82
2017-03-27T02:42:36.247Z,926.84
2017-03-27T02:42:55.606Z,926.84
2017-03-27T02:43:13.885Z,926.86
2017-03-27T02:43:33.270Z,926.85
2017-03-27T02:43:52.583Z,926.89
2017-03-27T02:44:11.386Z,926.87
2017-03-27T02:44:30.726Z,926.86
2017-03-27T02:44:49.551Z,926.87
2017-03-27T02:45:08.879Z,926.85
2017-03-27T02:45:27.751Z,926.83
2017-03-27T02:45:46.529Z,926.88
2017-03-27T02:46:05.838Z,926.86
2017-03-27T02:46:25.144Z,926.85
2017-03-27T02:46:44.465Z,926.87
2017-03-27T02:47:03.795Z,926.84
2017-03-27T02:47:23.113Z,926.82
2017-03-27T02:47:42.609Z,926.81
2017-03-27T02:48:01.932Z,926.81
2017-03-27T02:48:21.341Z,926.82
2017-03-27T02:48:40.795Z,926.77
2017-03-27T02:49:00.166Z,926.77
2017-03-27T02:49:19.981Z,926.75
2017-03-27T02:49:39.356Z,926.76
2017-03-27T02:49:58.234Z,926.81
2017-03-27T02:50:17.619Z,926.78
2017-03-27T02:50:36.974Z,926.75
2017-03-27T02:50:55.802Z,926.81
2017-03-27T02:51:14.099Z,926.79
2017-03-27T02:51:33.414Z,926.78
2017-03-27T02:51:52.990Z,926.79
2017-03-27T02:52:12.390Z,926.77
2017-03-27T02:52:31.703Z,926.81
2017-03-27T02:52:50.521Z,926.77
2017-03-27T02:53:09.851Z,926.79
2017-03-27T02:53:28.676Z,926.71
2017-03-27T02:53:47.483Z,926.78
2017-03-27T02:54:06.793Z,926.79
2017-03-27T02:54:25.639Z,926.8
2017-03-27T02:54:45.045Z,926.78
2017-03-27T02:55:04.365Z,926.78
2017-03-27T02:55:23.969Z,926.77
2017-03-27T02:55:43.335Z,926.81
2017-03-27T02:56:02.701Z,926.83
2017-03-27T02:56:22.466Z,926.83
2017-03-27T02:56:41.274Z,926.83
2017-03-27T02:57:00.679Z,926.85
2017-03-27T02:57:19.461Z,926.84
2017-03-27T02:57:37.758Z,926.81
2017-03-27T02:57:57.069Z,926.82
2017-03-27T02:58:15.878Z,926.8
2017-03-27T02:58:35.245Z,926.79
2017-03-27T02:58:54.569Z,926.8
2017-03-27T02:59:13.912Z,926.84
2017-03-27T02:59:33.246Z,926.8
2017-03-27T02:59:52.560Z,926.82
2017-03-27T03:00:11.352Z,926.82
2017-03-27T03:00:30.702Z,926.76
2017-03-27T03:00:50.036Z,926.84
2017-03-27T03:01:09.379Z,926.86
2017-03-27T03:01:28.722Z,926.78
2017-03-27T03:01:48.024Z,926.8
2017-03-27T03:02:07.341Z,926.85
2017-03-27T03:02:26.197Z,926.83
2017-03-27T03:02:45.544Z,926.84
2017-03-27T03:03:04.849Z,926.83
2017-03-27T03:03:23.678Z,926.86
2017-03-27T03:03:43.004Z,926.84
2017-03-27T03:04:02.361Z,926.84
2017-03-27T03:04:21.659Z,926.81
2017-03-27T03:04:40.997Z,926.82
2017-03-27T03:05:00.337Z,926.83
2017-03-27T03:05:19.660Z,926.78
2017-03-27T03:05:38.982Z,926.77
2017-03-27T03:05:57.789Z,926.73
2017-03-27T03:06:16.606Z,926.78
2017-03-27T03:06:35.934Z,926.74
2017-03-27T03:06:54.765Z,926.74
2017-03-27T03:07:14.106Z,926.79
2017-03-27T03:07:33.425Z,926.76
2017-03-27T03:07:52.744Z,926.77
2017-03-27T03:08:12.095Z,926.75
2017-03-27T03:08:31.421Z,926.75
2017-03-27T03:08:51.085Z,926.76
2017-03-27T03:09:10.389Z,926.75
2017-03-27T03:09:29.184Z,926.76
2017-03-27T03:09:48.592Z,926.74
2017-03-27T03:10:07.936Z,926.79
2017-03-27T03:10:27.283Z,926.78
2017-03-27T03:10:46.592Z,926.77
2017-03-27T03:11:05.926Z,926.81
2017-03-27T03:11:25.348Z,926.76
2017-03-27T03:11:44.160Z,926.78
2017-03-27T03:12:03.453Z,926.79
2017-03-27T03:12:22.756Z,926.78
2017-03-27T03:12:41.560Z,926.77
2017-03-27T03:13:00.923Z,926.77
2017-03-27T03:13:20.285Z,926.79
2017-03-27T03:13:39.588Z,926.76
2017-03-27T03:13:58.901Z,926.77
2017-03-27T03:14:17.699Z,926.8
2017-03-27T03:14:37.014Z,926.83
2017-03-27T03:14:56.337Z,926.77
2017-03-27T03:15:15.196Z,926.8
2017-03-27T03:15:34.053Z,926.78
2017-03-27T03:15:53.380Z,926.79
2017-03-27T03:16:13.166Z,926.78
2017-03-27T03:16:32.589Z,926.79
2017-03-27T03:16:51.910Z,926.77
2017-03-27T03:17:11.229Z,926.76
2017-03-27T03:17:30.583Z,926.76
2017-03-27T03:17:49.917Z,926.77
2017-03-27T03:18:09.258Z,926.76
2017-03-27T03:18:28.541Z,926.8
2017-03-27T03:18:47.912Z,926.76
2017-03-27T03:19:07.226Z,926.77
2017-03-27T03:19:26.545Z,926.79
2017-03-27T03:19:45.860Z,926.77
2017-03-27T03:20:04.734Z,926.76
2017-03-27T03:20:24.066Z,926.77
2017-03-27T03:20:42.872Z,926.8
2017-03-27T03:21:02.193Z,926.76
2017-03-27T03:21:21.501Z,926.8
2017-03-27T03:21:40.820Z,926.79
2017-03-27T03:21:59.611Z,926.73
2017-03-27T03:22:18.445Z,926.76
2017-03-27T03:22:37.841Z,926.74
2017-03-27T03:22:57.140Z,926.72
2017-03-27T03:23:16.456Z,926.75
2017-03-27T03:23:35.796Z,926.72
2017-03-27T03:23:55.131Z,926.74
2017-03-27T03:24:13.946Z,926.74
2017-03-27T03:24:33.300Z,926.7
2017-03-27T03:24:52.087Z,926.69
2017-03-27T03:25:11.424Z,926.68
2017-03-27T03:25:30.790Z,926.67
2017-03-27T03:25:50.135Z,926.67
2017-03-27T03:26:08.931Z,926.7
2017-03-27T03:26:27.723Z,926.66
2017-03-27T03:26:46.557Z,926.66
2017-03-27T03:27:05.872Z,926.71
2017-03-27T03:27:24.698Z,926.65
2017-03-27T03:27:43.003Z,926.68
2017-03-27T03:28:01.828Z,926.68
2017-03-27T03:28:21.197Z,926.66
2017-03-27T03:28:40.010Z,926.65
2017-03-27T03:28:59.306Z,926.67
2017-03-27T03:29:18.631Z,926.68
2017-03-27T03:29:37.451Z,926.65
2017-03-27T03:29:56.759Z,926.66
2017-03-27T03:30:16.069Z,926.65
2017-03-27T03:30:35.384Z,926.65
2017-03-27T03:30:54.695Z,926.66
2017-03-27T03:31:14.018Z,926.68
2017-03-27T03:31:33.328Z,926.64
2017-03-27T03:31:52.138Z,926.67
2017-03-27T03:32:10.930Z,926.67
2017-03-27T03:32:30.267Z,926.63
2017-03-27T03:32:49.564Z,926.66
2017-03-27T03:33:08.844Z,926.63
2017-03-27T03:33:28.177Z,926.63
2017-03-27T03:33:47.482Z,926.63
2017-03-27T03:34:06.821Z,926.67
2017-03-27T03:34:25.611Z,926.62
2017-03-27T03:34:44.935Z,926.66
2017-03-27T03:35:03.734Z,926.63
2017-03-27T03:35:22.026Z,926.64
2017-03-27T03:35:41.347Z,926.67
2017-03-27T03:36:00.659Z,926.62
2017-03-27T03:36:19.974Z,926.58
2017-03-27T03:36:39.320Z,926.63
2017-03-27T03:36:58.618Z,926.63
2017-03-27T03:37:17.929Z,926.59
2017-03-27T03:37:36.744Z,926.6
2017-03-27T03:37:56.097Z,926.6
2017-03-27T03:38:15.422Z,926.57
2017-03-27T03:38:34.772Z,926.57
2017-03-27T03:38:54.118Z,926.59
2017-03-27T03:39:13.433Z,926.56
2017-03-27T03:39:32.753Z,926.56
2017-03-27T03:39:52.061Z,926.55
2017-03-27T03:40:11.384Z,926.57
2017-03-27T03:40:30.677Z,926.55
2017-03-27T03:40:50.015Z,926.56
2017-03-27T03:41:09.387Z,926.55
2017-03-27T03:41:28.718Z,926.55
2017-03-27T03:41:47.500Z,926.5
2017-03-27T03:42:06.816Z,926.53
2017-03-27T03:42:26.150Z,926.5
2017-03-27T03:42:44.416Z,926.51
2017-03-27T03:43:03.750Z,926.51
2017-03-27T03:43:23.077Z,926.53
2017-03-27T03:43:41.891Z,926.54
2017-03-27T03:44:01.197Z,926.53
2017-03-27T03:44:20.516Z,926.52
2017-03-27T03:44:39.844Z,926.5
2017-03-27T03:44:59.418Z,926.5
2017-03-27T03:45:18.771Z,926.52
2017-03-27T03:45:37.596Z,926.51
2017-03-27T03:45:56.929Z,926.5
2017-03-27T03:46:16.272Z,926.47
2017-03-27T03:46:35.617Z,926.45
2017-03-27T03:46:54.946Z,926.45
2017-03-27T03:47:14.318Z,926.48
2017-03-27T03:47:33.658Z,926.46
2017-03-27T03:47:53.003Z,926.49
2017-03-27T03:48:12.291Z,926.48
2017-03-27T03:48:31.590Z,926.46
2017-03-27T03:48:50.929Z,926.45
2017-03-27T03:49:10.232Z,926.44
2017-03-27T03:49:29.545Z,926.41
2017-03-27T03:49:48.869Z,926.43
2017-03-27T03:50:08.206Z,926.35
2017-03-27T03:50:26.996Z,926.35
2017-03-27T03:50:46.325Z,926.37
2017-03-27T03:51:05.661Z,926.41
2017-03-27T03:51:24.995Z,926.33
2017-03-27T03:51:44.300Z,926.33
2017-03-27T03:52:03.627Z,926.35
2017-03-27T03:52:22.440Z,926.33
2017-03-27T03:52:41.215Z,926.34
2017-03-27T03:53:00.544Z,926.37
2017-03-27T03:53:19.865Z,926.36
2017-03-27T03:53:39.193Z,926.32
2017-03-27T03:53:58.502Z,926.34
2017-03-27T03:54:17.287Z,926.34
2017-03-27T03:54:36.103Z,926.36
2017-03-27T03:54:55.427Z,926.34
2017-03-27T03:55:13.703Z,926.33
2017-03-27T03:55:32.507Z,926.35
2017-03-27T03:55:51.831Z,926.3
2017-03-27T03:56:10.639Z,926.33
2017-03-27T03:56:29.955Z,926.27
2017-03-27T03:56:49.285Z,926.25
2017-03-27T03:57:08.614Z,926.29
2017-03-27T03:57:27.930Z,926.28
2017-03-27T03:57:47.299Z,926.29
2017-03-27T03:58:06.616Z,926.28
2017-03-27T03:58:25.953Z,926.27
2017-03-27T03:58:45.289Z,926.24
2017-03-27T03:59:04.588Z,926.21
2017-03-27T03:59:23.936Z,926.27
2017-03-27T03:59:42.231Z,926.27
2017-03-27T04:00:01.776Z,926.24
2017-03-27T04:00:21.087Z,926.23
2017-03-27T04:00:39.909Z,926.22
2017-03-27T04:00:59.212Z,926.22
2017-03-27T04:01:18.006Z,926.22
2017-03-27T04:01:37.319Z,926.21